sensor_id;sensor_type;location;lat;lon;timestamp;P1;durP1;ratioP1;P2;durP2;ratioP2
74660;SDS011;63191;39.566;2.654;2023-07-08T00:00:47;14.60;;;3.60;;
74660;SDS011;63191;39.566;2.654;2023-07-08T00:03:14;16.20;;;3.50;;
74660;SDS011;63191;39.566;2.654;2023-07-08T00:05:40;15.80;;;4.20;;
74660;SDS011;63191;39.566;2.654;2023-07-08T00:08:14;13.90;;;3.90;;
74660;SDS011;63191;39.566;2.654;2023-07-08T00:10:41;15.00;;;4.00;;
74660;SDS011;63191;39.566;2.654;2023-07-08T00:13:08;18.90;;;4.30;;
74660;SDS011;63191;39.566;2.654;2023-07-08T00:15:35;13.60;;;4.00;;
74660;SDS011;63191;39.566;2.654;2023-07-08T00:18:11;13.60;;;3.90;;
74660;SDS011;63191;39.566;2.654;2023-07-08T00:20:44;17.00;;;4.00;;
74660;SDS011;63191;39.566;2.654;2023-07-08T00:23:11;15.50;;;3.90;;
74660;SDS011;63191;39.566;2.654;2023-07-08T00:25:38;16.00;;;4.00;;
74660;SDS011;63191;39.566;2.654;2023-07-08T00:28:12;15.70;;;4.30;;
74660;SDS011;63191;39.566;2.654;2023-07-08T00:30:40;15.80;;;4.00;;
74660;SDS011;63191;39.566;2.654;2023-07-08T00:33:06;12.50;;;3.90;;
74660;SDS011;63191;39.566;2.654;2023-07-08T00:35:35;18.50;;;4.40;;
74660;SDS011;63191;39.566;2.654;2023-07-08T00:38:21;18.20;;;4.20;;
74660;SDS011;63191;39.566;2.654;2023-07-08T00:51:33;13.30;;;3.50;;
74660;SDS011;63191;39.566;2.654;2023-07-08T00:53:59;17.30;;;4.10;;
74660;SDS011;63191;39.566;2.654;2023-07-08T00:56:31;14.60;;;3.80;;
74660;SDS011;63191;39.566;2.654;2023-07-08T00:59:50;14.80;;;3.70;;
74660;SDS011;63191;39.566;2.654;2023-07-08T01:01:58;16.30;;;3.90;;
74660;SDS011;63191;39.566;2.654;2023-07-08T01:04:34;15.50;;;3.90;;
74660;SDS011;63191;39.566;2.654;2023-07-08T01:07:04;14.10;;;3.40;;
74660;SDS011;63191;39.566;2.654;2023-07-08T01:09:40;12.70;;;3.70;;
74660;SDS011;63191;39.566;2.654;2023-07-08T01:12:14;12.80;;;3.80;;
74660;SDS011;63191;39.566;2.654;2023-07-08T01:14:43;14.60;;;3.80;;
74660;SDS011;63191;39.566;2.654;2023-07-08T01:17:09;14.80;;;3.30;;
74660;SDS011;63191;39.566;2.654;2023-07-08T01:19:40;14.60;;;3.60;;
74660;SDS011;63191;39.566;2.654;2023-07-08T01:22:07;14.70;;;4.00;;
74660;SDS011;63191;39.566;2.654;2023-07-08T01:24:37;11.50;;;3.60;;
74660;SDS011;63191;39.566;2.654;2023-07-08T01:27:10;13.50;;;3.50;;
74660;SDS011;63191;39.566;2.654;2023-07-08T01:29:37;14.90;;;3.50;;
74660;SDS011;63191;39.566;2.654;2023-07-08T01:32:03;14.40;;;3.60;;
74660;SDS011;63191;39.566;2.654;2023-07-08T01:34:34;12.30;;;3.50;;
74660;SDS011;63191;39.566;2.654;2023-07-08T01:37:04;13.20;;;3.50;;
74660;SDS011;63191;39.566;2.654;2023-07-08T01:39:31;15.00;;;3.90;;
74660;SDS011;63191;39.566;2.654;2023-07-08T01:41:58;14.00;;;3.90;;
74660;SDS011;63191;39.566;2.654;2023-07-08T01:47:19;15.00;;;3.70;;
74660;SDS011;63191;39.566;2.654;2023-07-08T01:49:47;13.70;;;3.50;;
74660;SDS011;63191;39.566;2.654;2023-07-08T01:52:15;15.30;;;3.90;;
74660;SDS011;63191;39.566;2.654;2023-07-08T01:54:42;13.80;;;3.30;;
74660;SDS011;63191;39.566;2.654;2023-07-08T01:57:08;16.10;;;3.30;;
74660;SDS011;63191;39.566;2.654;2023-07-08T01:59:33;14.90;;;3.70;;
74660;SDS011;63191;39.566;2.654;2023-07-08T02:02:00;16.00;;;3.70;;
74660;SDS011;63191;39.566;2.654;2023-07-08T02:04:26;12.40;;;3.40;;
74660;SDS011;63191;39.566;2.654;2023-07-08T02:06:57;14.10;;;3.80;;
74660;SDS011;63191;39.566;2.654;2023-07-08T02:09:25;13.70;;;3.70;;
74660;SDS011;63191;39.566;2.654;2023-07-08T02:11:52;12.50;;;3.70;;
74660;SDS011;63191;39.566;2.654;2023-07-08T02:14:18;14.40;;;3.90;;
74660;SDS011;63191;39.566;2.654;2023-07-08T02:16:44;13.60;;;3.90;;
74660;SDS011;63191;39.566;2.654;2023-07-08T02:19:10;13.30;;;3.30;;
74660;SDS011;63191;39.566;2.654;2023-07-08T02:21:37;13.60;;;3.40;;
74660;SDS011;63191;39.566;2.654;2023-07-08T02:24:04;14.90;;;3.50;;
74660;SDS011;63191;39.566;2.654;2023-07-08T02:26:30;13.80;;;3.80;;
74660;SDS011;63191;39.566;2.654;2023-07-08T02:28:59;18.00;;;4.10;;
74660;SDS011;63191;39.566;2.654;2023-07-08T02:31:26;12.90;;;3.50;;
74660;SDS011;63191;39.566;2.654;2023-07-08T02:33:53;13.10;;;4.00;;
74660;SDS011;63191;39.566;2.654;2023-07-08T02:36:19;12.30;;;3.80;;
74660;SDS011;63191;39.566;2.654;2023-07-08T02:38:47;16.00;;;4.00;;
74660;SDS011;63191;39.566;2.654;2023-07-08T02:41:12;12.50;;;3.90;;
74660;SDS011;63191;39.566;2.654;2023-07-08T02:43:39;13.60;;;3.70;;
74660;SDS011;63191;39.566;2.654;2023-07-08T02:46:04;14.30;;;3.70;;
74660;SDS011;63191;39.566;2.654;2023-07-08T02:48:30;11.40;;;3.50;;
74660;SDS011;63191;39.566;2.654;2023-07-08T02:51:03;14.40;;;3.90;;
74660;SDS011;63191;39.566;2.654;2023-07-08T02:53:30;15.10;;;3.60;;
74660;SDS011;63191;39.566;2.654;2023-07-08T02:55:56;15.10;;;3.90;;
74660;SDS011;63191;39.566;2.654;2023-07-08T02:58:22;13.80;;;3.90;;
74660;SDS011;63191;39.566;2.654;2023-07-08T03:00:54;17.20;;;3.80;;
74660;SDS011;63191;39.566;2.654;2023-07-08T03:03:21;14.60;;;3.90;;
74660;SDS011;63191;39.566;2.654;2023-07-08T03:05:58;14.10;;;4.00;;
74660;SDS011;63191;39.566;2.654;2023-07-08T03:08:26;14.80;;;4.10;;
74660;SDS011;63191;39.566;2.654;2023-07-08T03:10:58;15.30;;;4.20;;
74660;SDS011;63191;39.566;2.654;2023-07-08T03:13:26;22.90;;;4.20;;
74660;SDS011;63191;39.566;2.654;2023-07-08T03:15:52;14.10;;;3.80;;
74660;SDS011;63191;39.566;2.654;2023-07-08T03:18:20;15.90;;;4.50;;
74660;SDS011;63191;39.566;2.654;2023-07-08T03:20:49;15.00;;;4.10;;
74660;SDS011;63191;39.566;2.654;2023-07-08T03:23:15;15.80;;;4.20;;
74660;SDS011;63191;39.566;2.654;2023-07-08T03:25:41;15.10;;;4.00;;
74660;SDS011;63191;39.566;2.654;2023-07-08T03:28:08;13.00;;;4.20;;
74660;SDS011;63191;39.566;2.654;2023-07-08T03:30:44;13.30;;;3.90;;
74660;SDS011;63191;39.566;2.654;2023-07-08T03:33:11;16.20;;;4.20;;
74660;SDS011;63191;39.566;2.654;2023-07-08T03:35:37;13.10;;;4.20;;
74660;SDS011;63191;39.566;2.654;2023-07-08T03:38:06;13.80;;;4.10;;
74660;SDS011;63191;39.566;2.654;2023-07-08T03:40:32;15.50;;;4.00;;
74660;SDS011;63191;39.566;2.654;2023-07-08T03:42:57;17.70;;;5.00;;
74660;SDS011;63191;39.566;2.654;2023-07-08T03:45:25;17.30;;;4.30;;
74660;SDS011;63191;39.566;2.654;2023-07-08T03:47:51;14.30;;;4.20;;
74660;SDS011;63191;39.566;2.654;2023-07-08T03:50:19;15.00;;;4.30;;
74660;SDS011;63191;39.566;2.654;2023-07-08T03:52:47;12.80;;;4.00;;
74660;SDS011;63191;39.566;2.654;2023-07-08T03:55:14;13.40;;;3.90;;
74660;SDS011;63191;39.566;2.654;2023-07-08T03:57:40;15.50;;;4.10;;
74660;SDS011;63191;39.566;2.654;2023-07-08T04:00:07;14.20;;;4.70;;
74660;SDS011;63191;39.566;2.654;2023-07-08T04:02:41;11.60;;;3.50;;
74660;SDS011;63191;39.566;2.654;2023-07-08T04:05:13;13.60;;;4.60;;
74660;SDS011;63191;39.566;2.654;2023-07-08T04:07:40;13.90;;;3.90;;
74660;SDS011;63191;39.566;2.654;2023-07-08T04:10:07;14.20;;;4.40;;
74660;SDS011;63191;39.566;2.654;2023-07-08T04:12:34;12.40;;;4.00;;
74660;SDS011;63191;39.566;2.654;2023-07-08T04:15:00;16.10;;;4.40;;
74660;SDS011;63191;39.566;2.654;2023-07-08T04:17:28;14.10;;;4.40;;
74660;SDS011;63191;39.566;2.654;2023-07-08T04:19:54;12.90;;;4.40;;
74660;SDS011;63191;39.566;2.654;2023-07-08T04:22:22;12.40;;;4.10;;
74660;SDS011;63191;39.566;2.654;2023-07-08T04:24:49;18.30;;;4.10;;
74660;SDS011;63191;39.566;2.654;2023-07-08T04:27:16;12.80;;;4.10;;
74660;SDS011;63191;39.566;2.654;2023-07-08T04:29:43;14.30;;;4.00;;
74660;SDS011;63191;39.566;2.654;2023-07-08T04:32:10;15.80;;;4.50;;
74660;SDS011;63191;39.566;2.654;2023-07-08T04:34:35;11.30;;;4.60;;
74660;SDS011;63191;39.566;2.654;2023-07-08T04:37:02;12.50;;;4.30;;
74660;SDS011;63191;39.566;2.654;2023-07-08T04:39:30;13.70;;;4.30;;
74660;SDS011;63191;39.566;2.654;2023-07-08T04:41:56;12.40;;;4.50;;
74660;SDS011;63191;39.566;2.654;2023-07-08T04:44:22;11.20;;;4.20;;
74660;SDS011;63191;39.566;2.654;2023-07-08T04:46:56;13.00;;;4.00;;
74660;SDS011;63191;39.566;2.654;2023-07-08T04:49:23;12.90;;;4.80;;
74660;SDS011;63191;39.566;2.654;2023-07-08T04:51:50;14.50;;;4.80;;
74660;SDS011;63191;39.566;2.654;2023-07-08T04:54:17;13.70;;;5.10;;
74660;SDS011;63191;39.566;2.654;2023-07-08T04:56:45;14.80;;;4.30;;
74660;SDS011;63191;39.566;2.654;2023-07-08T04:59:21;16.20;;;4.50;;
74660;SDS011;63191;39.566;2.654;2023-07-08T05:01:49;12.10;;;4.00;;
74660;SDS011;63191;39.566;2.654;2023-07-08T05:04:19;18.40;;;5.10;;
74660;SDS011;63191;39.566;2.654;2023-07-08T05:06:47;17.20;;;4.40;;
74660;SDS011;63191;39.566;2.654;2023-07-08T05:09:13;15.80;;;4.40;;
74660;SDS011;63191;39.566;2.654;2023-07-08T05:11:39;14.30;;;4.10;;
74660;SDS011;63191;39.566;2.654;2023-07-08T05:14:05;13.90;;;4.30;;
74660;SDS011;63191;39.566;2.654;2023-07-08T05:16:33;14.90;;;4.70;;
74660;SDS011;63191;39.566;2.654;2023-07-08T05:19:01;14.50;;;4.40;;
74660;SDS011;63191;39.566;2.654;2023-07-08T05:21:29;13.30;;;4.60;;
74660;SDS011;63191;39.566;2.654;2023-07-08T05:24:00;11.70;;;4.30;;
74660;SDS011;63191;39.566;2.654;2023-07-08T05:26:26;14.40;;;4.60;;
74660;SDS011;63191;39.566;2.654;2023-07-08T05:28:52;16.50;;;4.50;;
74660;SDS011;63191;39.566;2.654;2023-07-08T05:31:18;13.10;;;4.30;;
74660;SDS011;63191;39.566;2.654;2023-07-08T05:33:44;14.00;;;4.00;;
74660;SDS011;63191;39.566;2.654;2023-07-08T05:36:09;13.30;;;4.20;;
74660;SDS011;63191;39.566;2.654;2023-07-08T05:38:35;15.90;;;4.60;;
74660;SDS011;63191;39.566;2.654;2023-07-08T05:41:01;12.70;;;4.50;;
74660;SDS011;63191;39.566;2.654;2023-07-08T05:43:26;12.80;;;4.40;;
74660;SDS011;63191;39.566;2.654;2023-07-08T05:45:58;17.60;;;5.10;;
74660;SDS011;63191;39.566;2.654;2023-07-08T05:48:25;15.00;;;4.40;;
74660;SDS011;63191;39.566;2.654;2023-07-08T05:50:50;15.70;;;4.80;;
74660;SDS011;63191;39.566;2.654;2023-07-08T05:53:19;14.10;;;4.80;;
74660;SDS011;63191;39.566;2.654;2023-07-08T05:55:48;14.90;;;4.20;;
74660;SDS011;63191;39.566;2.654;2023-07-08T05:58:14;16.00;;;4.80;;
74660;SDS011;63191;39.566;2.654;2023-07-08T06:00:44;15.30;;;5.00;;
74660;SDS011;63191;39.566;2.654;2023-07-08T06:03:10;16.70;;;4.90;;
74660;SDS011;63191;39.566;2.654;2023-07-08T06:05:37;12.00;;;4.70;;
74660;SDS011;63191;39.566;2.654;2023-07-08T06:08:05;14.10;;;4.60;;
74660;SDS011;63191;39.566;2.654;2023-07-08T06:10:31;13.10;;;4.90;;
74660;SDS011;63191;39.566;2.654;2023-07-08T06:12:57;12.30;;;4.20;;
74660;SDS011;63191;39.566;2.654;2023-07-08T06:15:22;13.70;;;4.60;;
74660;SDS011;63191;39.566;2.654;2023-07-08T06:17:48;16.30;;;5.30;;
74660;SDS011;63191;39.566;2.654;2023-07-08T06:20:14;17.20;;;5.50;;
74660;SDS011;63191;39.566;2.654;2023-07-08T06:22:39;13.80;;;5.00;;
74660;SDS011;63191;39.566;2.654;2023-07-08T06:25:05;14.20;;;5.40;;
74660;SDS011;63191;39.566;2.654;2023-07-08T06:27:31;12.20;;;4.50;;
74660;SDS011;63191;39.566;2.654;2023-07-08T06:29:57;13.70;;;4.80;;
74660;SDS011;63191;39.566;2.654;2023-07-08T06:32:25;14.40;;;4.50;;
74660;SDS011;63191;39.566;2.654;2023-07-08T06:34:51;13.20;;;4.70;;
74660;SDS011;63191;39.566;2.654;2023-07-08T06:37:21;14.40;;;4.60;;
74660;SDS011;63191;39.566;2.654;2023-07-08T06:39:47;14.60;;;4.70;;
74660;SDS011;63191;39.566;2.654;2023-07-08T06:42:12;16.70;;;5.10;;
74660;SDS011;63191;39.566;2.654;2023-07-08T06:44:38;14.20;;;4.90;;
74660;SDS011;63191;39.566;2.654;2023-07-08T06:47:04;13.50;;;5.00;;
74660;SDS011;63191;39.566;2.654;2023-07-08T06:49:30;15.30;;;4.70;;
74660;SDS011;63191;39.566;2.654;2023-07-08T06:51:56;13.70;;;5.50;;
74660;SDS011;63191;39.566;2.654;2023-07-08T06:54:25;14.60;;;5.00;;
74660;SDS011;63191;39.566;2.654;2023-07-08T06:56:50;16.40;;;5.40;;
74660;SDS011;63191;39.566;2.654;2023-07-08T06:59:16;16.00;;;5.40;;
74660;SDS011;63191;39.566;2.654;2023-07-08T07:01:42;14.30;;;5.40;;
74660;SDS011;63191;39.566;2.654;2023-07-08T07:04:08;16.90;;;4.90;;
74660;SDS011;63191;39.566;2.654;2023-07-08T07:06:33;16.50;;;5.10;;
74660;SDS011;63191;39.566;2.654;2023-07-08T07:08:59;15.00;;;4.70;;
74660;SDS011;63191;39.566;2.654;2023-07-08T07:11:25;14.20;;;5.10;;
74660;SDS011;63191;39.566;2.654;2023-07-08T07:13:51;15.90;;;5.10;;
74660;SDS011;63191;39.566;2.654;2023-07-08T07:16:16;14.00;;;5.30;;
74660;SDS011;63191;39.566;2.654;2023-07-08T07:18:42;15.20;;;5.20;;
74660;SDS011;63191;39.566;2.654;2023-07-08T07:21:08;16.80;;;5.10;;
74660;SDS011;63191;39.566;2.654;2023-07-08T07:23:34;17.30;;;5.50;;
74660;SDS011;63191;39.566;2.654;2023-07-08T07:25:59;15.90;;;4.80;;
74660;SDS011;63191;39.566;2.654;2023-07-08T07:28:25;14.70;;;4.70;;
74660;SDS011;63191;39.566;2.654;2023-07-08T07:30:59;14.70;;;5.30;;
74660;SDS011;63191;39.566;2.654;2023-07-08T07:33:25;12.90;;;5.10;;
74660;SDS011;63191;39.566;2.654;2023-07-08T07:35:51;13.80;;;4.90;;
74660;SDS011;63191;39.566;2.654;2023-07-08T07:38:17;18.20;;;4.90;;
74660;SDS011;63191;39.566;2.654;2023-07-08T07:40:43;13.60;;;4.90;;
74660;SDS011;63191;39.566;2.654;2023-07-08T07:43:10;16.90;;;4.80;;
74660;SDS011;63191;39.566;2.654;2023-07-08T07:45:36;13.30;;;5.00;;
74660;SDS011;63191;39.566;2.654;2023-07-08T07:48:02;14.00;;;5.10;;
74660;SDS011;63191;39.566;2.654;2023-07-08T07:50:42;13.50;;;4.40;;
74660;SDS011;63191;39.566;2.654;2023-07-08T07:53:22;16.90;;;5.00;;
74660;SDS011;63191;39.566;2.654;2023-07-08T07:56:02;13.90;;;4.60;;
74660;SDS011;63191;39.566;2.654;2023-07-08T07:58:29;18.10;;;5.00;;
74660;SDS011;63191;39.566;2.654;2023-07-08T08:00:56;15.20;;;5.30;;
74660;SDS011;63191;39.566;2.654;2023-07-08T08:03:22;15.20;;;5.90;;
74660;SDS011;63191;39.566;2.654;2023-07-08T08:05:49;16.40;;;5.40;;
74660;SDS011;63191;39.566;2.654;2023-07-08T08:08:15;11.40;;;4.80;;
74660;SDS011;63191;39.566;2.654;2023-07-08T08:10:44;17.70;;;5.70;;
74660;SDS011;63191;39.566;2.654;2023-07-08T08:13:10;13.20;;;5.10;;
74660;SDS011;63191;39.566;2.654;2023-07-08T08:15:37;18.20;;;5.40;;
74660;SDS011;63191;39.566;2.654;2023-07-08T08:18:03;18.10;;;5.30;;
74660;SDS011;63191;39.566;2.654;2023-07-08T08:20:29;14.70;;;5.70;;
74660;SDS011;63191;39.566;2.654;2023-07-08T08:22:55;15.10;;;5.30;;
74660;SDS011;63191;39.566;2.654;2023-07-08T08:25:24;15.90;;;5.40;;
74660;SDS011;63191;39.566;2.654;2023-07-08T08:27:50;14.60;;;5.00;;
74660;SDS011;63191;39.566;2.654;2023-07-08T08:30:17;17.60;;;5.90;;
74660;SDS011;63191;39.566;2.654;2023-07-08T08:32:43;14.50;;;5.10;;
74660;SDS011;63191;39.566;2.654;2023-07-08T08:35:09;16.70;;;5.50;;
74660;SDS011;63191;39.566;2.654;2023-07-08T08:37:35;15.10;;;5.70;;
74660;SDS011;63191;39.566;2.654;2023-07-08T08:40:01;12.40;;;5.00;;
74660;SDS011;63191;39.566;2.654;2023-07-08T08:42:30;15.00;;;5.60;;
74660;SDS011;63191;39.566;2.654;2023-07-08T08:45:00;17.40;;;5.70;;
74660;SDS011;63191;39.566;2.654;2023-07-08T08:47:38;16.50;;;6.10;;
74660;SDS011;63191;39.566;2.654;2023-07-08T08:50:24;16.00;;;6.00;;
74660;SDS011;63191;39.566;2.654;2023-07-08T08:53:10;16.10;;;6.20;;
74660;SDS011;63191;39.566;2.654;2023-07-08T08:55:38;16.50;;;6.40;;
74660;SDS011;63191;39.566;2.654;2023-07-08T08:58:41;14.80;;;5.50;;
74660;SDS011;63191;39.566;2.654;2023-07-08T09:01:15;15.80;;;5.70;;
74660;SDS011;63191;39.566;2.654;2023-07-08T09:03:49;14.70;;;6.10;;
74660;SDS011;63191;39.566;2.654;2023-07-08T09:08:47;13.00;;;5.90;;
74660;SDS011;63191;39.566;2.654;2023-07-08T09:11:38;14.40;;;6.60;;
74660;SDS011;63191;39.566;2.654;2023-07-08T09:14:22;17.70;;;6.10;;
74660;SDS011;63191;39.566;2.654;2023-07-08T09:17:32;16.40;;;5.30;;
74660;SDS011;63191;39.566;2.654;2023-07-08T09:19:45;15.80;;;5.90;;
74660;SDS011;63191;39.566;2.654;2023-07-08T09:25:35;15.90;;;5.70;;
74660;SDS011;63191;39.566;2.654;2023-07-08T09:28:13;20.00;;;5.70;;
74660;SDS011;63191;39.566;2.654;2023-07-08T09:30:42;18.60;;;6.00;;
74660;SDS011;63191;39.566;2.654;2023-07-08T09:33:15;19.40;;;6.30;;
74660;SDS011;63191;39.566;2.654;2023-07-08T09:35:43;15.60;;;5.70;;
74660;SDS011;63191;39.566;2.654;2023-07-08T09:38:21;15.00;;;6.30;;
74660;SDS011;63191;39.566;2.654;2023-07-08T09:40:50;17.70;;;6.40;;
74660;SDS011;63191;39.566;2.654;2023-07-08T09:43:34;21.60;;;5.60;;
74660;SDS011;63191;39.566;2.654;2023-07-08T09:46:02;19.90;;;6.30;;
74660;SDS011;63191;39.566;2.654;2023-07-08T09:48:44;14.80;;;5.50;;
74660;SDS011;63191;39.566;2.654;2023-07-08T09:54:02;16.40;;;5.50;;
74660;SDS011;63191;39.566;2.654;2023-07-08T09:56:28;15.40;;;5.90;;
74660;SDS011;63191;39.566;2.654;2023-07-08T10:01:41;15.30;;;5.00;;
74660;SDS011;63191;39.566;2.654;2023-07-08T10:09:54;17.20;;;5.90;;
74660;SDS011;63191;39.566;2.654;2023-07-08T10:15:00;15.20;;;5.50;;
74660;SDS011;63191;39.566;2.654;2023-07-08T10:17:31;15.10;;;5.80;;
74660;SDS011;63191;39.566;2.654;2023-07-08T10:19:59;17.20;;;5.50;;
74660;SDS011;63191;39.566;2.654;2023-07-08T10:40:42;17.30;;;6.40;;
74660;SDS011;63191;39.566;2.654;2023-07-08T10:49:24;19.00;;;6.00;;
74660;SDS011;63191;39.566;2.654;2023-07-08T11:01:14;16.60;;;6.10;;
74660;SDS011;63191;39.566;2.654;2023-07-08T11:07:00;14.90;;;5.80;;
74660;SDS011;63191;39.566;2.654;2023-07-08T11:09:44;14.70;;;5.80;;
74660;SDS011;63191;39.566;2.654;2023-07-08T11:18:15;14.30;;;6.00;;
74660;SDS011;63191;39.566;2.654;2023-07-08T11:20:55;16.60;;;6.40;;
74660;SDS011;63191;39.566;2.654;2023-07-08T11:23:35;14.10;;;6.00;;
74660;SDS011;63191;39.566;2.654;2023-07-08T11:28:57;17.90;;;6.80;;
74660;SDS011;63191;39.566;2.654;2023-07-08T11:31:27;14.00;;;6.80;;
74660;SDS011;63191;39.566;2.654;2023-07-08T11:33:57;18.70;;;6.70;;
74660;SDS011;63191;39.566;2.654;2023-07-08T11:36:24;15.90;;;6.70;;
74660;SDS011;63191;39.566;2.654;2023-07-08T11:38:54;15.80;;;7.00;;
74660;SDS011;63191;39.566;2.654;2023-07-08T11:41:30;14.80;;;6.90;;
74660;SDS011;63191;39.566;2.654;2023-07-08T11:44:04;15.80;;;6.30;;
74660;SDS011;63191;39.566;2.654;2023-07-08T11:46:32;14.70;;;7.60;;
74660;SDS011;63191;39.566;2.654;2023-07-08T11:49:06;13.30;;;6.60;;
74660;SDS011;63191;39.566;2.654;2023-07-08T11:51:41;13.90;;;7.20;;
74660;SDS011;63191;39.566;2.654;2023-07-08T11:54:21;15.80;;;7.90;;
74660;SDS011;63191;39.566;2.654;2023-07-08T11:59:26;15.00;;;7.30;;
74660;SDS011;63191;39.566;2.654;2023-07-08T12:04:59;13.90;;;7.90;;
74660;SDS011;63191;39.566;2.654;2023-07-08T12:07:33;16.50;;;8.70;;
74660;SDS011;63191;39.566;2.654;2023-07-08T12:10:16;14.00;;;9.20;;
74660;SDS011;63191;39.566;2.654;2023-07-08T12:12:45;16.40;;;9.30;;
74660;SDS011;63191;39.566;2.654;2023-07-08T12:17:42;17.20;;;11.30;;
74660;SDS011;63191;39.566;2.654;2023-07-08T12:20:22;14.20;;;10.50;;
74660;SDS011;63191;39.566;2.654;2023-07-08T12:22:50;17.00;;;11.50;;
74660;SDS011;63191;39.566;2.654;2023-07-08T12:25:19;16.80;;;10.60;;
74660;SDS011;63191;39.566;2.654;2023-07-08T12:27:47;17.40;;;12.40;;
74660;SDS011;63191;39.566;2.654;2023-07-08T12:30:17;15.60;;;13.20;;
74660;SDS011;63191;39.566;2.654;2023-07-08T12:32:44;18.80;;;15.20;;
74660;SDS011;63191;39.566;2.654;2023-07-08T12:35:32;17.00;;;15.20;;
74660;SDS011;63191;39.566;2.654;2023-07-08T12:38:09;20.50;;;18.10;;
74660;SDS011;63191;39.566;2.654;2023-07-08T12:43:09;23.90;;;21.60;;
74660;SDS011;63191;39.566;2.654;2023-07-08T12:45:38;28.40;;;26.20;;
74660;SDS011;63191;39.566;2.654;2023-07-08T12:48:04;30.80;;;27.90;;
74660;SDS011;63191;39.566;2.654;2023-07-08T12:50:30;31.30;;;28.90;;
74660;SDS011;63191;39.566;2.654;2023-07-08T12:52:56;36.30;;;33.50;;
74660;SDS011;63191;39.566;2.654;2023-07-08T12:55:22;39.60;;;36.50;;
74660;SDS011;63191;39.566;2.654;2023-07-08T12:57:51;41.60;;;38.60;;
74660;SDS011;63191;39.566;2.654;2023-07-08T13:00:48;44.50;;;41.30;;
74660;SDS011;63191;39.566;2.654;2023-07-08T13:12:18;64.50;;;60.30;;
74660;SDS011;63191;39.566;2.654;2023-07-08T13:14:48;68.60;;;64.50;;
74660;SDS011;63191;39.566;2.654;2023-07-08T13:17:15;76.80;;;72.30;;
74660;SDS011;63191;39.566;2.654;2023-07-08T13:19:42;82.20;;;77.80;;
74660;SDS011;63191;39.566;2.654;2023-07-08T13:22:22;85.20;;;80.70;;
74660;SDS011;63191;39.566;2.654;2023-07-08T13:24:49;93.10;;;88.10;;
74660;SDS011;63191;39.566;2.654;2023-07-08T13:27:25;94.90;;;90.00;;
74660;SDS011;63191;39.566;2.654;2023-07-08T13:30:18;101.80;;;96.80;;
74660;SDS011;63191;39.566;2.654;2023-07-08T13:32:48;104.60;;;99.40;;
74660;SDS011;63191;39.566;2.654;2023-07-08T13:37:48;114.00;;;108.40;;
74660;SDS011;63191;39.566;2.654;2023-07-08T13:40:16;119.20;;;113.40;;
74660;SDS011;63191;39.566;2.654;2023-07-08T13:42:52;126.70;;;120.40;;
74660;SDS011;63191;39.566;2.654;2023-07-08T13:45:30;122.20;;;116.30;;
74660;SDS011;63191;39.566;2.654;2023-07-08T13:50:43;136.10;;;130.00;;
74660;SDS011;63191;39.566;2.654;2023-07-08T13:53:18;134.80;;;128.40;;
74660;SDS011;63191;39.566;2.654;2023-07-08T13:55:55;136.50;;;130.20;;
74660;SDS011;63191;39.566;2.654;2023-07-08T13:58:27;140.90;;;134.30;;
74660;SDS011;63191;39.566;2.654;2023-07-08T14:00:55;147.20;;;140.40;;
74660;SDS011;63191;39.566;2.654;2023-07-08T14:03:21;147.30;;;140.40;;
74660;SDS011;63191;39.566;2.654;2023-07-08T14:05:47;148.10;;;140.80;;
74660;SDS011;63191;39.566;2.654;2023-07-08T14:08:15;135.20;;;128.50;;
74660;SDS011;63191;39.566;2.654;2023-07-08T14:10:42;133.30;;;126.60;;
74660;SDS011;63191;39.566;2.654;2023-07-08T14:13:09;137.60;;;130.70;;
74660;SDS011;63191;39.566;2.654;2023-07-08T14:15:37;135.00;;;128.70;;
74660;SDS011;63191;39.566;2.654;2023-07-08T14:18:04;141.10;;;134.40;;
74660;SDS011;63191;39.566;2.654;2023-07-08T14:20:30;144.40;;;137.60;;
74660;SDS011;63191;39.566;2.654;2023-07-08T14:23:03;137.80;;;131.30;;
74660;SDS011;63191;39.566;2.654;2023-07-08T14:25:29;143.00;;;136.20;;
74660;SDS011;63191;39.566;2.654;2023-07-08T14:27:55;139.30;;;132.60;;
74660;SDS011;63191;39.566;2.654;2023-07-08T14:30:22;143.80;;;136.90;;
74660;SDS011;63191;39.566;2.654;2023-07-08T14:32:47;139.40;;;132.20;;
74660;SDS011;63191;39.566;2.654;2023-07-08T14:35:24;139.30;;;132.80;;
74660;SDS011;63191;39.566;2.654;2023-07-08T14:37:55;138.40;;;131.80;;
74660;SDS011;63191;39.566;2.654;2023-07-08T14:40:31;137.40;;;130.80;;
74660;SDS011;63191;39.566;2.654;2023-07-08T14:43:05;130.80;;;124.50;;
74660;SDS011;63191;39.566;2.654;2023-07-08T14:45:48;131.00;;;124.60;;
74660;SDS011;63191;39.566;2.654;2023-07-08T14:48:32;133.60;;;127.00;;
74660;SDS011;63191;39.566;2.654;2023-07-08T14:54:19;141.70;;;135.20;;
74660;SDS011;63191;39.566;2.654;2023-07-08T14:59:21;141.20;;;134.00;;
74660;SDS011;63191;39.566;2.654;2023-07-08T15:02:21;135.20;;;128.70;;
74660;SDS011;63191;39.566;2.654;2023-07-08T15:10:08;127.90;;;121.50;;
74660;SDS011;63191;39.566;2.654;2023-07-08T15:15:43;120.20;;;113.80;;
74660;SDS011;63191;39.566;2.654;2023-07-08T15:18:24;118.40;;;112.40;;
74660;SDS011;63191;39.566;2.654;2023-07-08T15:23:14;109.30;;;103.50;;
74660;SDS011;63191;39.566;2.654;2023-07-08T15:40:19;103.10;;;97.50;;
74660;SDS011;63191;39.566;2.654;2023-07-08T15:42:49;101.20;;;95.80;;
74660;SDS011;63191;39.566;2.654;2023-07-08T15:45:23;97.70;;;92.40;;
74660;SDS011;63191;39.566;2.654;2023-07-08T15:47:54;92.20;;;87.10;;
74660;SDS011;63191;39.566;2.654;2023-07-08T15:50:22;90.40;;;85.40;;
74660;SDS011;63191;39.566;2.654;2023-07-08T15:56:01;89.30;;;84.30;;
74660;SDS011;63191;39.566;2.654;2023-07-08T15:58:31;82.80;;;78.10;;
74660;SDS011;63191;39.566;2.654;2023-07-08T16:01:03;83.50;;;78.60;;
74660;SDS011;63191;39.566;2.654;2023-07-08T16:03:30;81.80;;;77.20;;
74660;SDS011;63191;39.566;2.654;2023-07-08T16:05:58;79.90;;;75.40;;
74660;SDS011;63191;39.566;2.654;2023-07-08T16:08:33;80.80;;;76.00;;
74660;SDS011;63191;39.566;2.654;2023-07-08T16:11:02;76.80;;;72.00;;
74660;SDS011;63191;39.566;2.654;2023-07-08T16:13:34;77.60;;;73.10;;
74660;SDS011;63191;39.566;2.654;2023-07-08T16:18:29;73.40;;;68.90;;
74660;SDS011;63191;39.566;2.654;2023-07-08T16:20:55;69.40;;;65.50;;
74660;SDS011;63191;39.566;2.654;2023-07-08T16:23:24;65.00;;;61.20;;
74660;SDS011;63191;39.566;2.654;2023-07-08T16:25:51;63.10;;;59.20;;
74660;SDS011;63191;39.566;2.654;2023-07-08T16:35:21;49.40;;;46.00;;
74660;SDS011;63191;39.566;2.654;2023-07-08T16:37:49;49.40;;;46.10;;
74660;SDS011;63191;39.566;2.654;2023-07-08T16:40:26;43.40;;;40.30;;
74660;SDS011;63191;39.566;2.654;2023-07-08T16:42:55;42.60;;;39.50;;
74660;SDS011;63191;39.566;2.654;2023-07-08T16:45:22;40.60;;;37.70;;
74660;SDS011;63191;39.566;2.654;2023-07-08T16:47:50;38.90;;;36.20;;
74660;SDS011;63191;39.566;2.654;2023-07-08T16:50:19;37.70;;;34.60;;
74660;SDS011;63191;39.566;2.654;2023-07-08T16:52:46;35.70;;;33.30;;
74660;SDS011;63191;39.566;2.654;2023-07-08T16:55:14;34.10;;;31.40;;
74660;SDS011;63191;39.566;2.654;2023-07-08T16:57:42;33.00;;;30.60;;
74660;SDS011;63191;39.566;2.654;2023-07-08T17:00:19;33.20;;;30.40;;
74660;SDS011;63191;39.566;2.654;2023-07-08T17:02:46;31.20;;;28.50;;
74660;SDS011;63191;39.566;2.654;2023-07-08T17:05:19;28.50;;;26.00;;
74660;SDS011;63191;39.566;2.654;2023-07-08T17:07:47;28.50;;;26.00;;
74660;SDS011;63191;39.566;2.654;2023-07-08T17:10:14;27.50;;;25.10;;